sensor_id;sensor_type;location;lat;lon;timestamp;P1;durP1;ratioP1;P2;durP2;ratioP2
37787;SDS011;23627;53.302;-6.362;2024-02-23T00:00:56;1.98;;;0.50;;
37787;SDS011;23627;53.302;-6.362;2024-02-23T00:03:22;2.28;;;0.57;;
37787;SDS011;23627;53.302;-6.362;2024-02-23T00:05:48;2.05;;;0.88;;
37787;SDS011;23627;53.302;-6.362;2024-02-23T00:08:13;1.90;;;0.47;;
37787;SDS011;23627;53.302;-6.362;2024-02-23T00:10:39;3.08;;;0.43;;
37787;SDS011;23627;53.302;-6.362;2024-02-23T00:13:05;1.90;;;0.60;;
37787;SDS011;23627;53.302;-6.362;2024-02-23T00:15:31;2.70;;;0.60;;
37787;SDS011;23627;53.302;-6.362;2024-02-23T00:17:57;2.45;;;0.50;;
37787;SDS011;23627;53.302;-6.362;2024-02-23T00:20:22;2.65;;;0.57;;
37787;SDS011;23627;53.302;-6.362;2024-02-23T00:22:48;1.35;;;0.50;;
37787;SDS011;23627;53.302;-6.362;2024-02-23T00:25:14;0.90;;;0.40;;
37787;SDS011;23627;53.302;-6.362;2024-02-23T00:27:40;2.00;;;0.60;;
37787;SDS011;23627;53.302;-6.362;2024-02-23T00:30:07;2.08;;;0.57;;
37787;SDS011;23627;53.302;-6.362;2024-02-23T00:32:33;3.72;;;0.60;;
37787;SDS011;23627;53.302;-6.362;2024-02-23T00:35:01;2.95;;;0.60;;
37787;SDS011;23627;53.302;-6.362;2024-02-23T00:37:27;4.05;;;0.52;;
37787;SDS011;23627;53.302;-6.362;2024-02-23T00:39:53;1.58;;;0.60;;
37787;SDS011;23627;53.302;-6.362;2024-02-23T00:42:19;3.63;;;0.73;;
37787;SDS011;23627;53.302;-6.362;2024-02-23T00:44:46;1.73;;;0.57;;
37787;SDS011;23627;53.302;-6.362;2024-02-23T00:47:12;1.88;;;0.60;;
37787;SDS011;23627;53.302;-6.362;2024-02-23T00:49:37;1.70;;;0.50;;
37787;SDS011;23627;53.302;-6.362;2024-02-23T00:52:03;2.83;;;0.60;;
37787;SDS011;23627;53.302;-6.362;2024-02-23T00:54:29;2.40;;;0.77;;
37787;SDS011;23627;53.302;-6.362;2024-02-23T00:56:55;3.38;;;0.60;;
37787;SDS011;23627;53.302;-6.362;2024-02-23T00:59:21;2.13;;;0.55;;
37787;SDS011;23627;53.302;-6.362;2024-02-23T01:01:49;3.67;;;0.70;;
37787;SDS011;23627;53.302;-6.362;2024-02-23T01:04:15;3.05;;;0.60;;
37787;SDS011;23627;53.302;-6.362;2024-02-23T01:06:41;2.05;;;0.60;;
37787;SDS011;23627;53.302;-6.362;2024-02-23T01:09:06;1.88;;;0.60;;
37787;SDS011;23627;53.302;-6.362;2024-02-23T01:11:32;3.35;;;0.80;;
37787;SDS011;23627;53.302;-6.362;2024-02-23T01:13:58;3.55;;;0.77;;
37787;SDS011;23627;53.302;-6.362;2024-02-23T01:16:24;2.13;;;0.65;;
37787;SDS011;23627;53.302;-6.362;2024-02-23T01:18:50;2.88;;;0.60;;
37787;SDS011;23627;53.302;-6.362;2024-02-23T01:21:15;3.15;;;0.70;;
37787;SDS011;23627;53.302;-6.362;2024-02-23T01:23:41;2.58;;;0.75;;
37787;SDS011;23627;53.302;-6.362;2024-02-23T01:26:07;2.85;;;0.68;;
37787;SDS011;23627;53.302;-6.362;2024-02-23T01:28:33;2.28;;;0.98;;
37787;SDS011;23627;53.302;-6.362;2024-02-23T01:30:58;2.50;;;0.73;;
37787;SDS011;23627;53.302;-6.362;2024-02-23T01:33:24;3.22;;;0.60;;
37787;SDS011;23627;53.302;-6.362;2024-02-23T01:35:50;3.25;;;0.65;;
37787;SDS011;23627;53.302;-6.362;2024-02-23T01:38:16;1.92;;;0.40;;
37787;SDS011;23627;53.302;-6.362;2024-02-23T01:40:45;2.65;;;0.60;;
37787;SDS011;23627;53.302;-6.362;2024-02-23T01:43:12;3.25;;;0.60;;
37787;SDS011;23627;53.302;-6.362;2024-02-23T01:45:38;2.28;;;0.60;;
37787;SDS011;23627;53.302;-6.362;2024-02-23T01:48:04;2.95;;;0.63;;
37787;SDS011;23627;53.302;-6.362;2024-02-23T01:50:31;1.50;;;0.55;;
37787;SDS011;23627;53.302;-6.362;2024-02-23T01:52:58;1.33;;;0.30;;
37787;SDS011;23627;53.302;-6.362;2024-02-23T01:55:27;1.83;;;0.57;;
37787;SDS011;23627;53.302;-6.362;2024-02-23T01:57:53;1.50;;;0.50;;
37787;SDS011;23627;53.302;-6.362;2024-02-23T02:00:20;3.38;;;0.65;;
37787;SDS011;23627;53.302;-6.362;2024-02-23T02:02:47;2.58;;;0.50;;
37787;SDS011;23627;53.302;-6.362;2024-02-23T02:05:13;2.65;;;0.75;;
37787;SDS011;23627;53.302;-6.362;2024-02-23T02:07:39;1.98;;;0.50;;
37787;SDS011;23627;53.302;-6.362;2024-02-23T02:10:09;2.28;;;0.40;;
37787;SDS011;23627;53.302;-6.362;2024-02-23T02:12:35;2.30;;;0.50;;
37787;SDS011;23627;53.302;-6.362;2024-02-23T02:15:01;3.75;;;0.40;;
37787;SDS011;23627;53.302;-6.362;2024-02-23T02:17:27;1.75;;;0.52;;
37787;SDS011;23627;53.302;-6.362;2024-02-23T02:19:53;2.22;;;0.57;;
37787;SDS011;23627;53.302;-6.362;2024-02-23T02:22:20;3.10;;;0.93;;
37787;SDS011;23627;53.302;-6.362;2024-02-23T02:24:45;3.47;;;0.80;;
37787;SDS011;23627;53.302;-6.362;2024-02-23T02:27:13;1.40;;;0.40;;
37787;SDS011;23627;53.302;-6.362;2024-02-23T02:29:39;2.78;;;0.35;;
37787;SDS011;23627;53.302;-6.362;2024-02-23T02:32:05;2.70;;;0.47;;
37787;SDS011;23627;53.302;-6.362;2024-02-23T02:34:31;3.13;;;0.50;;
37787;SDS011;23627;53.302;-6.362;2024-02-23T02:36:57;2.50;;;0.50;;
37787;SDS011;23627;53.302;-6.362;2024-02-23T02:39:23;1.95;;;0.43;;
37787;SDS011;23627;53.302;-6.362;2024-02-23T02:41:48;2.58;;;0.47;;
37787;SDS011;23627;53.302;-6.362;2024-02-23T02:44:14;1.13;;;0.35;;
37787;SDS011;23627;53.302;-6.362;2024-02-23T02:46:41;1.77;;;0.40;;
37787;SDS011;23627;53.302;-6.362;2024-02-23T02:49:07;4.00;;;0.40;;
37787;SDS011;23627;53.302;-6.362;2024-02-23T02:51:33;1.85;;;0.30;;
37787;SDS011;23627;53.302;-6.362;2024-02-23T02:53:58;2.47;;;0.40;;
37787;SDS011;23627;53.302;-6.362;2024-02-23T02:56:24;3.20;;;0.50;;
37787;SDS011;23627;53.302;-6.362;2024-02-23T02:58:50;3.22;;;0.40;;
37787;SDS011;23627;53.302;-6.362;2024-02-23T03:01:16;2.58;;;0.30;;
37787;SDS011;23627;53.302;-6.362;2024-02-23T03:03:42;2.03;;;0.40;;
37787;SDS011;23627;53.302;-6.362;2024-02-23T03:06:07;1.50;;;0.30;;
37787;SDS011;23627;53.302;-6.362;2024-02-23T03:08:34;0.63;;;0.30;;
37787;SDS011;23627;53.302;-6.362;2024-02-23T03:11:00;2.08;;;0.30;;
37787;SDS011;23627;53.302;-6.362;2024-02-23T03:13:26;1.52;;;0.28;;
37787;SDS011;23627;53.302;-6.362;2024-02-23T03:15:51;1.05;;;0.28;;
37787;SDS011;23627;53.302;-6.362;2024-02-23T03:18:17;0.73;;;0.25;;
37787;SDS011;23627;53.302;-6.362;2024-02-23T03:20:43;1.00;;;0.45;;
37787;SDS011;23627;53.302;-6.362;2024-02-23T03:23:09;1.02;;;0.22;;
37787;SDS011;23627;53.302;-6.362;2024-02-23T03:25:35;0.90;;;0.10;;
37787;SDS011;23627;53.302;-6.362;2024-02-23T03:28:01;2.42;;;0.22;;
37787;SDS011;23627;53.302;-6.362;2024-02-23T03:30:26;1.65;;;0.40;;
37787;SDS011;23627;53.302;-6.362;2024-02-23T03:32:52;1.25;;;0.25;;
37787;SDS011;23627;53.302;-6.362;2024-02-23T03:35:18;0.82;;;0.20;;
37787;SDS011;23627;53.302;-6.362;2024-02-23T03:37:44;0.95;;;0.30;;
37787;SDS011;23627;53.302;-6.362;2024-02-23T03:40:10;2.70;;;0.30;;
37787;SDS011;23627;53.302;-6.362;2024-02-23T03:42:35;1.30;;;0.20;;
37787;SDS011;23627;53.302;-6.362;2024-02-23T03:45:01;1.70;;;0.20;;
37787;SDS011;23627;53.302;-6.362;2024-02-23T03:47:28;1.65;;;0.40;;
37787;SDS011;23627;53.302;-6.362;2024-02-23T03:49:53;2.13;;;0.20;;
37787;SDS011;23627;53.302;-6.362;2024-02-23T03:52:19;0.90;;;0.30;;
37787;SDS011;23627;53.302;-6.362;2024-02-23T03:54:45;2.13;;;0.25;;
37787;SDS011;23627;53.302;-6.362;2024-02-23T03:57:11;2.50;;;0.30;;
37787;SDS011;23627;53.302;-6.362;2024-02-23T03:59:37;1.90;;;0.20;;
37787;SDS011;23627;53.302;-6.362;2024-02-23T04:02:03;1.55;;;0.25;;
37787;SDS011;23627;53.302;-6.362;2024-02-23T04:04:29;0.95;;;0.20;;
37787;SDS011;23627;53.302;-6.362;2024-02-23T04:06:55;1.13;;;0.20;;
37787;SDS011;23627;53.302;-6.362;2024-02-23T04:09:21;0.77;;;0.10;;
37787;SDS011;23627;53.302;-6.362;2024-02-23T04:11:47;0.93;;;0.15;;
37787;SDS011;23627;53.302;-6.362;2024-02-23T04:14:13;1.02;;;0.17;;
37787;SDS011;23627;53.302;-6.362;2024-02-23T04:16:39;1.42;;;0.30;;
37787;SDS011;23627;53.302;-6.362;2024-02-23T04:19:05;1.02;;;0.30;;
37787;SDS011;23627;53.302;-6.362;2024-02-23T04:21:31;2.40;;;0.20;;
37787;SDS011;23627;53.302;-6.362;2024-02-23T04:23:56;0.70;;;0.20;;
37787;SDS011;23627;53.302;-6.362;2024-02-23T04:26:22;0.90;;;0.10;;
37787;SDS011;23627;53.302;-6.362;2024-02-23T04:28:48;0.82;;;0.20;;
37787;SDS011;23627;53.302;-6.362;2024-02-23T04:31:14;0.90;;;0.10;;
37787;SDS011;23627;53.302;-6.362;2024-02-23T04:33:40;1.08;;;0.20;;
37787;SDS011;23627;53.302;-6.362;2024-02-23T04:36:06;1.85;;;0.30;;
37787;SDS011;23627;53.302;-6.362;2024-02-23T04:38:32;1.77;;;0.20;;
37787;SDS011;23627;53.302;-6.362;2024-02-23T04:41:01;2.85;;;0.40;;
37787;SDS011;23627;53.302;-6.362;2024-02-23T04:43:28;1.45;;;0.10;;
37787;SDS011;23627;53.302;-6.362;2024-02-23T04:45:53;0.95;;;0.20;;
37787;SDS011;23627;53.302;-6.362;2024-02-23T04:48:19;0.47;;;0.10;;
37787;SDS011;23627;53.302;-6.362;2024-02-23T04:50:45;0.40;;;0.10;;
37787;SDS011;23627;53.302;-6.362;2024-02-23T04:53:11;0.57;;;0.10;;
37787;SDS011;23627;53.302;-6.362;2024-02-23T04:55:37;2.15;;;0.25;;
37787;SDS011;23627;53.302;-6.362;2024-02-23T04:58:03;0.85;;;0.10;;
37787;SDS011;23627;53.302;-6.362;2024-02-23T05:00:28;1.27;;;0.20;;
37787;SDS011;23627;53.302;-6.362;2024-02-23T05:03:01;1.42;;;0.10;;
37787;SDS011;23627;53.302;-6.362;2024-02-23T05:05:31;0.10;;;0.00;;
37787;SDS011;23627;53.302;-6.362;2024-02-23T05:07:57;1.02;;;0.30;;
37787;SDS011;23627;53.302;-6.362;2024-02-23T05:10:23;0.70;;;0.10;;
37787;SDS011;23627;53.302;-6.362;2024-02-23T05:12:49;0.25;;;0.10;;
37787;SDS011;23627;53.302;-6.362;2024-02-23T05:15:15;1.17;;;0.10;;
37787;SDS011;23627;53.302;-6.362;2024-02-23T05:17:41;1.08;;;0.10;;
37787;SDS011;23627;53.302;-6.362;2024-02-23T05:20:07;1.23;;;0.32;;
37787;SDS011;23627;53.302;-6.362;2024-02-23T05:22:38;3.20;;;0.20;;
37787;SDS011;23627;53.302;-6.362;2024-02-23T05:25:05;0.95;;;0.30;;
37787;SDS011;23627;53.302;-6.362;2024-02-23T05:27:31;0.52;;;0.10;;
37787;SDS011;23627;53.302;-6.362;2024-02-23T05:29:58;1.17;;;0.20;;
37787;SDS011;23627;53.302;-6.362;2024-02-23T05:32:23;1.45;;;0.20;;
37787;SDS011;23627;53.302;-6.362;2024-02-23T05:34:49;0.55;;;0.20;;
37787;SDS011;23627;53.302;-6.362;2024-02-23T05:37:18;1.83;;;0.20;;
37787;SDS011;23627;53.302;-6.362;2024-02-23T05:39:44;0.75;;;0.15;;
37787;SDS011;23627;53.302;-6.362;2024-02-23T05:42:11;0.98;;;0.15;;
37787;SDS011;23627;53.302;-6.362;2024-02-23T05:44:39;1.00;;;0.00;;
37787;SDS011;23627;53.302;-6.362;2024-02-23T05:47:08;0.70;;;0.10;;
37787;SDS011;23627;53.302;-6.362;2024-02-23T05:49:35;0.32;;;0.10;;
37787;SDS011;23627;53.302;-6.362;2024-02-23T05:52:00;3.28;;;0.15;;
37787;SDS011;23627;53.302;-6.362;2024-02-23T05:54:26;1.10;;;0.20;;
37787;SDS011;23627;53.302;-6.362;2024-02-23T05:56:52;2.38;;;0.20;;
37787;SDS011;23627;53.302;-6.362;2024-02-23T05:59:18;0.50;;;0.20;;
37787;SDS011;23627;53.302;-6.362;2024-02-23T06:01:43;1.17;;;0.30;;
37787;SDS011;23627;53.302;-6.362;2024-02-23T06:04:09;1.52;;;0.20;;
37787;SDS011;23627;53.302;-6.362;2024-02-23T06:06:35;2.60;;;0.25;;
37787;SDS011;23627;53.302;-6.362;2024-02-23T06:09:00;1.63;;;0.22;;
37787;SDS011;23627;53.302;-6.362;2024-02-23T06:11:27;1.55;;;0.20;;
37787;SDS011;23627;53.302;-6.362;2024-02-23T06:13:53;1.35;;;0.40;;
37787;SDS011;23627;53.302;-6.362;2024-02-23T06:16:19;1.90;;;0.30;;
37787;SDS011;23627;53.302;-6.362;2024-02-23T06:18:45;2.33;;;0.30;;
37787;SDS011;23627;53.302;-6.362;2024-02-23T06:21:14;2.92;;;0.30;;
37787;SDS011;23627;53.302;-6.362;2024-02-23T06:23:40;1.70;;;0.30;;
37787;SDS011;23627;53.302;-6.362;2024-02-23T06:26:09;1.15;;;0.30;;
37787;SDS011;23627;53.302;-6.362;2024-02-23T06:28:35;4.63;;;0.30;;
37787;SDS011;23627;53.302;-6.362;2024-02-23T06:31:04;1.05;;;0.20;;
37787;SDS011;23627;53.302;-6.362;2024-02-23T06:33:33;4.07;;;0.35;;
37787;SDS011;23627;53.302;-6.362;2024-02-23T06:36:01;2.35;;;0.50;;
37787;SDS011;23627;53.302;-6.362;2024-02-23T06:38:28;2.28;;;0.30;;
37787;SDS011;23627;53.302;-6.362;2024-02-23T06:40:54;1.20;;;0.40;;
37787;SDS011;23627;53.302;-6.362;2024-02-23T06:43:23;2.95;;;0.10;;
37787;SDS011;23627;53.302;-6.362;2024-02-23T06:45:49;1.35;;;0.30;;
37787;SDS011;23627;53.302;-6.362;2024-02-23T06:48:15;3.13;;;0.30;;
37787;SDS011;23627;53.302;-6.362;2024-02-23T06:50:41;3.70;;;0.38;;
37787;SDS011;23627;53.302;-6.362;2024-02-23T06:53:07;2.95;;;0.32;;
37787;SDS011;23627;53.302;-6.362;2024-02-23T06:55:33;2.28;;;0.30;;
37787;SDS011;23627;53.302;-6.362;2024-02-23T06:57:59;1.33;;;0.30;;
37787;SDS011;23627;53.302;-6.362;2024-02-23T07:00:25;1.85;;;0.35;;
37787;SDS011;23627;53.302;-6.362;2024-02-23T07:02:50;2.55;;;0.38;;
37787;SDS011;23627;53.302;-6.362;2024-02-23T07:05:16;3.58;;;0.40;;
37787;SDS011;23627;53.302;-6.362;2024-02-23T07:07:43;2.65;;;0.50;;
37787;SDS011;23627;53.302;-6.362;2024-02-23T07:10:09;1.30;;;0.40;;
37787;SDS011;23627;53.302;-6.362;2024-02-23T07:12:36;2.25;;;0.30;;
37787;SDS011;23627;53.302;-6.362;2024-02-23T07:15:02;3.55;;;0.40;;
37787;SDS011;23627;53.302;-6.362;2024-02-23T07:17:28;1.65;;;0.40;;
37787;SDS011;23627;53.302;-6.362;2024-02-23T07:19:53;2.35;;;0.22;;
37787;SDS011;23627;53.302;-6.362;2024-02-23T07:22:21;3.08;;;0.50;;
37787;SDS011;23627;53.302;-6.362;2024-02-23T07:24:46;4.13;;;0.40;;
37787;SDS011;23627;53.302;-6.362;2024-02-23T07:27:12;1.92;;;0.38;;
37787;SDS011;23627;53.302;-6.362;2024-02-23T07:29:38;1.95;;;0.40;;
37787;SDS011;23627;53.302;-6.362;2024-02-23T07:32:04;1.73;;;0.57;;
37787;SDS011;23627;53.302;-6.362;2024-02-23T07:34:30;3.38;;;0.40;;
37787;SDS011;23627;53.302;-6.362;2024-02-23T07:36:56;2.92;;;0.30;;
37787;SDS011;23627;53.302;-6.362;2024-02-23T07:39:22;3.75;;;0.45;;
37787;SDS011;23627;53.302;-6.362;2024-02-23T07:41:48;3.60;;;0.50;;
37787;SDS011;23627;53.302;-6.362;2024-02-23T07:44:14;2.63;;;0.20;;
37787;SDS011;23627;53.302;-6.362;2024-02-23T07:46:39;3.55;;;0.40;;
37787;SDS011;23627;53.302;-6.362;2024-02-23T07:49:09;1.75;;;0.30;;
37787;SDS011;23627;53.302;-6.362;2024-02-23T07:51:35;2.40;;;0.40;;
37787;SDS011;23627;53.302;-6.362;2024-02-23T07:54:01;3.08;;;0.40;;
37787;SDS011;23627;53.302;-6.362;2024-02-23T07:56:27;2.83;;;0.38;;
37787;SDS011;23627;53.302;-6.362;2024-02-23T07:59:02;2.28;;;0.32;;
37787;SDS011;23627;53.302;-6.362;2024-02-23T08:01:35;3.30;;;0.50;;
37787;SDS011;23627;53.302;-6.362;2024-02-23T08:04:01;2.45;;;0.32;;
37787;SDS011;23627;53.302;-6.362;2024-02-23T08:06:28;3.58;;;0.40;;
37787;SDS011;23627;53.302;-6.362;2024-02-23T08:08:54;3.13;;;0.50;;
37787;SDS011;23627;53.302;-6.362;2024-02-23T08:11:22;3.15;;;0.32;;
37787;SDS011;23627;53.302;-6.362;2024-02-23T08:13:48;3.17;;;0.40;;
37787;SDS011;23627;53.302;-6.362;2024-02-23T08:16:15;0.75;;;0.20;;
37787;SDS011;23627;53.302;-6.362;2024-02-23T08:18:44;1.05;;;0.20;;
37787;SDS011;23627;53.302;-6.362;2024-02-23T08:21:10;1.40;;;0.28;;
37787;SDS011;23627;53.302;-6.362;2024-02-23T08:23:36;2.40;;;0.30;;
37787;SDS011;23627;53.302;-6.362;2024-02-23T08:26:02;2.85;;;0.40;;
37787;SDS011;23627;53.302;-6.362;2024-02-23T08:28:31;0.63;;;0.20;;
37787;SDS011;23627;53.302;-6.362;2024-02-23T08:30:57;1.55;;;0.22;;
37787;SDS011;23627;53.302;-6.362;2024-02-23T08:33:22;1.55;;;0.40;;
37787;SDS011;23627;53.302;-6.362;2024-02-23T08:35:48;1.77;;;0.35;;
37787;SDS011;23627;53.302;-6.362;2024-02-23T08:38:14;1.05;;;0.20;;
37787;SDS011;23627;53.302;-6.362;2024-02-23T08:40:40;1.75;;;0.30;;
37787;SDS011;23627;53.302;-6.362;2024-02-23T08:43:07;2.83;;;0.50;;
37787;SDS011;23627;53.302;-6.362;2024-02-23T08:45:33;1.58;;;0.40;;
37787;SDS011;23627;53.302;-6.362;2024-02-23T08:48:01;2.53;;;0.35;;
37787;SDS011;23627;53.302;-6.362;2024-02-23T08:50:28;2.47;;;0.70;;
37787;SDS011;23627;53.302;-6.362;2024-02-23T08:52:54;2.42;;;0.47;;
37787;SDS011;23627;53.302;-6.362;2024-02-23T08:55:20;3.05;;;0.43;;
37787;SDS011;23627;53.302;-6.362;2024-02-23T08:57:46;1.95;;;0.45;;
37787;SDS011;23627;53.302;-6.362;2024-02-23T09:00:13;1.75;;;0.30;;
37787;SDS011;23627;53.302;-6.362;2024-02-23T09:02:41;1.85;;;0.30;;
37787;SDS011;23627;53.302;-6.362;2024-02-23T09:05:07;2.40;;;0.40;;
37787;SDS011;23627;53.302;-6.362;2024-02-23T09:07:36;1.83;;;0.40;;
37787;SDS011;23627;53.302;-6.362;2024-02-23T09:10:02;1.23;;;0.28;;
37787;SDS011;23627;53.302;-6.362;2024-02-23T09:12:31;1.17;;;0.38;;
37787;SDS011;23627;53.302;-6.362;2024-02-23T09:15:00;1.63;;;0.40;;
37787;SDS011;23627;53.302;-6.362;2024-02-23T09:17:26;2.33;;;0.50;;
37787;SDS011;23627;53.302;-6.362;2024-02-23T09:19:51;1.20;;;0.30;;
37787;SDS011;23627;53.302;-6.362;2024-02-23T09:22:17;1.38;;;0.30;;
37787;SDS011;23627;53.302;-6.362;2024-02-23T09:24:43;2.30;;;0.30;;
37787;SDS011;23627;53.302;-6.362;2024-02-23T09:27:09;1.73;;;0.30;;
37787;SDS011;23627;53.302;-6.362;2024-02-23T09:29:35;1.05;;;0.40;;
37787;SDS011;23627;53.302;-6.362;2024-02-23T09:32:00;1.73;;;0.40;;
37787;SDS011;23627;53.302;-6.362;2024-02-23T09:34:26;2.85;;;0.30;;
37787;SDS011;23627;53.302;-6.362;2024-02-23T09:36:52;1.42;;;0.65;;
37787;SDS011;23627;53.302;-6.362;2024-02-23T09:39:18;2.28;;;0.65;;
37787;SDS011;23627;53.302;-6.362;2024-02-23T09:41:45;1.15;;;0.40;;
37787;SDS011;23627;53.302;-6.362;2024-02-23T09:44:15;0.77;;;0.22;;
37787;SDS011;23627;53.302;-6.362;2024-02-23T09:46:43;1.63;;;0.30;;
37787;SDS011;23627;53.302;-6.362;2024-02-23T09:49:11;1.35;;;0.32;;
37787;SDS011;23627;53.302;-6.362;2024-02-23T09:51:37;1.33;;;0.35;;
37787;SDS011;23627;53.302;-6.362;2024-02-23T09:54:04;1.00;;;0.30;;
37787;SDS011;23627;53.302;-6.362;2024-02-23T09:56:30;1.23;;;0.35;;
37787;SDS011;23627;53.302;-6.362;2024-02-23T09:58:58;1.10;;;0.30;;
37787;SDS011;23627;53.302;-6.362;2024-02-23T10:01:28;1.23;;;0.50;;
37787;SDS011;23627;53.302;-6.362;2024-02-23T10:03:56;1.20;;;0.40;;
37787;SDS011;23627;53.302;-6.362;2024-02-23T10:06:24;1.60;;;0.25;;
37787;SDS011;23627;53.302;-6.362;2024-02-23T10:08:50;1.20;;;0.30;;
37787;SDS011;23627;53.302;-6.362;2024-02-23T10:11:20;1.05;;;0.40;;
37787;SDS011;23627;53.302;-6.362;2024-02-23T10:13:49;3.28;;;0.65;;
37787;SDS011;23627;53.302;-6.362;2024-02-23T10:16:16;2.95;;;0.73;;
37787;SDS011;23627;53.302;-6.362;2024-02-23T10:18:46;2.63;;;0.50;;
37787;SDS011;23627;53.302;-6.362;2024-02-23T10:21:15;3.58;;;0.50;;
37787;SDS011;23627;53.302;-6.362;2024-02-23T10:23:43;3.60;;;0.60;;
37787;SDS011;23627;53.302;-6.362;2024-02-23T10:26:12;3.10;;;0.60;;
37787;SDS011;23627;53.302;-6.362;2024-02-23T10:28:38;2.13;;;0.47;;
37787;SDS011;23627;53.302;-6.362;2024-02-23T10:31:04;2.45;;;0.47;;
37787;SDS011;23627;53.302;-6.362;2024-02-23T10:33:31;2.08;;;0.50;;
37787;SDS011;23627;53.302;-6.362;2024-02-23T10:35:57;2.28;;;0.50;;
37787;SDS011;23627;53.302;-6.362;2024-02-23T10:38:28;3.35;;;0.50;;
37787;SDS011;23627;53.302;-6.362;2024-02-23T10:40:57;2.08;;;0.40;;
37787;SDS011;23627;53.302;-6.362;2024-02-23T10:43:30;1.17;;;0.40;;
37787;SDS011;23627;53.302;-6.362;2024-02-23T10:46:00;0.70;;;0.45;;
37787;SDS011;23627;53.302;-6.362;2024-02-23T10:48:28;1.55;;;0.40;;
37787;SDS011;23627;53.302;-6.362;2024-02-23T10:50:55;1.73;;;0.40;;
37787;SDS011;23627;53.302;-6.362;2024-02-23T10:53:24;1.50;;;0.38;;
37787;SDS011;23627;53.302;-6.362;2024-02-23T10:55:51;1.30;;;0.43;;
37787;SDS011;23627;53.302;-6.362;2024-02-23T10:58:22;1.60;;;0.47;;
37787;SDS011;23627;53.302;-6.362;2024-02-23T11:00:48;1.58;;;0.50;;
37787;SDS011;23627;53.302;-6.362;2024-02-23T11:03:14;0.90;;;0.40;;
37787;SDS011;23627;53.302;-6.362;2024-02-23T11:05:40;2.38;;;0.40;;
37787;SDS011;23627;53.302;-6.362;2024-02-23T11:08:06;1.23;;;0.40;;
37787;SDS011;23627;53.302;-6.362;2024-02-23T11:13:34;1.38;;;0.43;;
37787;SDS011;23627;53.302;-6.362;2024-02-23T11:16:04;0.90;;;0.45;;
37787;SDS011;23627;53.302;-6.362;2024-02-23T11:18:31;1.45;;;0.40;;
37787;SDS011;23627;53.302;-6.362;2024-02-23T11:20:59;1.23;;;0.30;;
37787;SDS011;23627;53.302;-6.362;2024-02-23T11:23:27;1.40;;;0.52;;
37787;SDS011;23627;53.302;-6.362;2024-02-23T11:26:11;2.25;;;0.68;;
37787;SDS011;23627;53.302;-6.362;2024-02-23T11:28:46;1.30;;;0.40;;
37787;SDS011;23627;53.302;-6.362;2024-02-23T11:31:14;1.40;;;0.50;;
37787;SDS011;23627;53.302;-6.362;2024-02-23T11:33:47;1.92;;;0.40;;
37787;SDS011;23627;53.302;-6.362;2024-02-23T11:36:21;2.15;;;0.50;;
37787;SDS011;23627;53.302;-6.362;2024-02-23T11:38:48;3.05;;;0.57;;
37787;SDS011;23627;53.302;-6.362;2024-02-23T11:41:15;2.15;;;0.82;;
37787;SDS011;23627;53.302;-6.362;2024-02-23T11:43:41;2.58;;;0.50;;
37787;SDS011;23627;53.302;-6.362;2024-02-23T11:46:07;1.85;;;0.40;;
37787;SDS011;23627;53.302;-6.362;2024-02-23T11:48:33;2.80;;;0.60;;
37787;SDS011;23627;53.302;-6.362;2024-02-23T11:50:59;2.15;;;0.40;;
37787;SDS011;23627;53.302;-6.362;2024-02-23T11:53:27;3.55;;;0.50;;
37787;SDS011;23627;53.302;-6.362;2024-02-23T11:55:54;2.45;;;0.55;;
37787;SDS011;23627;53.302;-6.362;2024-02-23T11:58:20;1.83;;;0.40;;
37787;SDS011;23627;53.302;-6.362;2024-02-23T12:00:46;3.75;;;0.70;;
37787;SDS011;23627;53.302;-6.362;2024-02-23T12:03:12;3.47;;;0.52;;
37787;SDS011;23627;53.302;-6.362;2024-02-23T12:05:38;2.53;;;0.68;;
37787;SDS011;23627;53.302;-6.362;2024-02-23T12:08:04;2.35;;;0.50;;
37787;SDS011;23627;53.302;-6.362;2024-02-23T12:10:30;3.08;;;1.08;;
37787;SDS011;23627;53.302;-6.362;2024-02-23T12:12:57;1.92;;;0.47;;
37787;SDS011;23627;53.302;-6.362;2024-02-23T12:15:24;3.10;;;0.77;;
37787;SDS011;23627;53.302;-6.362;2024-02-23T12:17:50;2.25;;;0.40;;
37787;SDS011;23627;53.302;-6.362;2024-02-23T12:20:16;3.95;;;0.57;;
37787;SDS011;23627;53.302;-6.362;2024-02-23T12:22:42;2.42;;;0.80;;
37787;SDS011;23627;53.302;-6.362;2024-02-23T12:25:08;1.88;;;0.50;;
37787;SDS011;23627;53.302;-6.362;2024-02-23T12:27:34;3.00;;;0.70;;
37787;SDS011;23627;53.302;-6.362;2024-02-23T12:30:00;1.67;;;0.50;;
37787;SDS011;23627;53.302;-6.362;2024-02-23T12:32:25;2.45;;;0.50;;
37787;SDS011;23627;53.302;-6.362;2024-02-23T12:34:55;1.23;;;0.50;;
37787;SDS011;23627;53.302;-6.362;2024-02-23T12:37:26;2.00;;;0.50;;
37787;SDS011;23627;53.302;-6.362;2024-02-23T12:39:59;2.38;;;0.40;;
37787;SDS011;23627;53.302;-6.362;2024-02-23T12:42:25;2.53;;;0.70;;
37787;SDS011;23627;53.302;-6.362;2024-02-23T12:44:51;1.15;;;0.30;;
37787;SDS011;23627;53.302;-6.362;2024-02-23T12:47:17;2.10;;;0.50;;
37787;SDS011;23627;53.302;-6.362;2024-02-23T12:49:42;1.83;;;0.60;;
37787;SDS011;23627;53.302;-6.362;2024-02-23T12:52:08;1.20;;;0.50;;
37787;SDS011;23627;53.302;-6.362;2024-02-23T12:54:35;3.95;;;0.50;;
37787;SDS011;23627;53.302;-6.362;2024-02-23T12:57:01;2.85;;;0.60;;
37787;SDS011;23627;53.302;-6.362;2024-02-23T12:59:26;1.60;;;0.50;;
37787;SDS011;23627;53.302;-6.362;2024-02-23T13:01:52;2.63;;;0.70;;
37787;SDS011;23627;53.302;-6.362;2024-02-23T13:04:21;4.88;;;0.65;;
37787;SDS011;23627;53.302;-6.362;2024-02-23T13:06:49;3.10;;;0.60;;
37787;SDS011;23627;53.302;-6.362;2024-02-23T13:09:15;3.85;;;0.50;;
37787;SDS011;23627;53.302;-6.362;2024-02-23T13:11:43;2.70;;;0.60;;
37787;SDS011;23627;53.302;-6.362;2024-02-23T13:14:10;2.75;;;0.60;;
37787;SDS011;23627;53.302;-6.362;2024-02-23T13:16:36;1.65;;;0.50;;
37787;SDS011;23627;53.302;-6.362;2024-02-23T13:19:02;2.28;;;0.60;;
37787;SDS011;23627;53.302;-6.362;2024-02-23T13:21:28;2.17;;;0.50;;
37787;SDS011;23627;53.302;-6.362;2024-02-23T13:23:54;1.55;;;0.60;;
37787;SDS011;23627;53.302;-6.362;2024-02-23T13:26:19;1.92;;;0.60;;
37787;SDS011;23627;53.302;-6.362;2024-02-23T13:28:46;2.65;;;0.70;;
37787;SDS011;23627;53.302;-6.362;2024-02-23T13:31:11;1.30;;;0.38;;
37787;SDS011;23627;53.302;-6.362;2024-02-23T13:33:38;3.08;;;0.60;;
37787;SDS011;23627;53.302;-6.362;2024-02-23T13:36:04;3.78;;;0.65;;
37787;SDS011;23627;53.302;-6.362;2024-02-23T13:38:30;2.13;;;0.43;;
37787;SDS011;23627;53.302;-6.362;2024-02-23T13:40:56;3.08;;;0.45;;
37787;SDS011;23627;53.302;-6.362;2024-02-23T13:43:22;2.78;;;0.40;;
37787;SDS011;23627;53.302;-6.362;2024-02-23T13:45:51;3.28;;;0.80;;
37787;SDS011;23627;53.302;-6.362;2024-02-23T13:48:18;2.47;;;0.57;;
37787;SDS011;23627;53.302;-6.362;2024-02-23T13:50:48;2.17;;;0.75;;
37787;SDS011;23627;53.302;-6.362;2024-02-23T13:53:14;3.03;;;0.70;;
37787;SDS011;23627;53.302;-6.362;2024-02-23T13:55:40;2.42;;;0.60;;
37787;SDS011;23627;53.302;-6.362;2024-02-23T13:58:09;3.13;;;0.50;;
37787;SDS011;23627;53.302;-6.362;2024-02-23T14:00:36;3.03;;;0.70;;
37787;SDS011;23627;53.302;-6.362;2024-02-23T14:03:01;1.73;;;0.40;;
37787;SDS011;23627;53.302;-6.362;2024-02-23T14:05:28;2.22;;;0.50;;
37787;SDS011;23627;53.302;-6.362;2024-02-23T14:07:53;1.92;;;0.50;;
37787;SDS011;23627;53.302;-6.362;2024-02-23T14:10:19;1.50;;;0.50;;
37787;SDS011;23627;53.302;-6.362;2024-02-23T14:12:45;2.40;;;0.50;;
37787;SDS011;23627;53.302;-6.362;2024-02-23T14:15:11;3.60;;;0.50;;
37787;SDS011;23627;53.302;-6.362;2024-02-23T14:17:40;6.07;;;0.80;;
37787;SDS011;23627;53.302;-6.362;2024-02-23T14:20:06;2.05;;;0.30;;
37787;SDS011;23627;53.302;-6.362;2024-02-23T14:22:38;2.85;;;0.70;;
37787;SDS011;23627;53.302;-6.362;2024-02-23T14:25:04;2.45;;;0.60;;
37787;SDS011;23627;53.302;-6.362;2024-02-23T14:27:30;3.47;;;0.60;;
37787;SDS011;23627;53.302;-6.362;2024-02-23T14:29:56;1.75;;;0.60;;
37787;SDS011;23627;53.302;-6.362;2024-02-23T14:32:22;2.10;;;0.50;;